Time;durP1;ratioP1;P1;durP2;ratioP2;P2;SDS_P1;SDS_P2;PMS_P1;PMS_P2;Temp;Humidity;BMP_temperature;BMP_pressure;BME280_temperature;BME280_humidity;BME280_pressure;Samples;Min_cycle;Max_cycle;Signal;HPM_P1;HPM_P2
2021/08/11 00:01:47;;;;;;;8.90;5.65;;;;;;;14.08;82.42;101897.66;5047017;28;20075;-71
2021/08/11 00:04:13;;;;;;;11.60;6.07;;;;;;;14.09;82.24;101895.94;5046997;28;20038;-71
2021/08/11 00:06:38;;;;;;;12.82;5.32;;;;;;;14.07;82.48;101901.22;5047057;28;20034;-70
2021/08/11 00:09:03;;;;;;;6.97;5.30;;;;;;;14.04;82.59;101907.38;5046920;28;20033;-70
2021/08/11 00:11:30;;;;;;;6.35;4.78;;;;;;;14.02;83.02;101900.31;5044395;28;20093;-71
2021/08/11 00:13:55;;;;;;;12.77;6.03;;;;;;;14.02;83.30;101908.25;5046743;28;20053;-72
2021/08/11 00:16:21;;;;;;;7.68;5.28;;;;;;;14.01;82.93;101899.44;5046706;28;20033;-70
2021/08/11 00:18:46;;;;;;;10.90;5.32;;;;;;;13.99;83.17;101903.84;5046685;28;20030;-72
2021/08/11 00:21:12;;;;;;;8.35;5.43;;;;;;;13.97;83.00;101902.97;5046723;28;20021;-70
2021/08/11 00:23:37;;;;;;;8.70;5.50;;;;;;;13.96;83.02;101909.13;5046589;28;20033;-71
2021/08/11 00:26:03;;;;;;;7.93;5.88;;;;;;;13.95;83.04;101895.91;5028937;28;20029;-71
2021/08/11 00:28:28;;;;;;;11.50;6.05;;;;;;;13.93;83.05;101895.91;5046552;28;20029;-71
2021/08/11 00:30:54;;;;;;;8.73;5.85;;;;;;;13.91;82.83;101892.38;5046510;28;20033;-72
2021/08/11 00:33:20;;;;;;;10.98;5.70;;;;;;;13.90;82.93;101897.66;5046501;28;20033;-71
2021/08/11 00:35:46;;;;;;;8.60;5.75;;;;;;;13.91;83.21;101900.28;5046757;28;20029;-71
2021/08/11 00:38:11;;;;;;;8.80;6.70;;;;;;;13.90;83.63;101900.31;5046313;28;20416;-71
2021/08/11 00:40:37;;;;;;;9.02;5.85;;;;;;;13.89;83.59;101894.13;5044485;28;20097;-71
2021/08/11 00:43:07;;;;;;;6.93;5.90;;;;;;;13.89;83.66;101898.53;5045989;28;20057;-71
2021/08/11 00:45:33;;;;;;;11.07;6.22;;;;;;;13.88;83.53;101894.16;5046311;28;20400;-71
2021/08/11 00:47:58;;;;;;;12.88;5.45;;;;;;;13.89;83.42;101902.06;5046337;28;20028;-72
2021/08/11 00:50:24;;;;;;;8.95;5.93;;;;;;;13.90;83.90;101902.97;5046232;28;20033;-71
2021/08/11 00:52:49;;;;;;;8.00;5.90;;;;;;;13.90;83.94;101898.53;5046156;28;20024;-71
2021/08/11 00:55:17;;;;;;;10.65;6.45;;;;;;;13.90;84.12;101902.97;5046159;28;20060;-71
2021/08/11 00:57:43;;;;;;;10.43;6.32;;;;;;;13.90;83.95;101905.59;5045987;28;20444;-70
2021/08/11 01:00:10;;;;;;;10.40;6.97;;;;;;;13.90;83.84;101903.81;5045627;28;20059;-71
2021/08/11 01:02:38;;;;;;;9.63;5.97;;;;;;;13.91;84.06;101905.56;5046168;28;20041;-71
2021/08/11 01:05:05;;;;;;;12.43;6.55;;;;;;;13.91;84.14;101899.41;5045965;28;20053;-72
2021/08/11 01:07:35;;;;;;;13.48;7.82;;;;;;;13.93;84.09;101909.13;5045998;28;20040;-71
2021/08/11 01:10:03;;;;;;;8.77;6.40;;;;;;;13.94;84.06;101899.44;5043943;28;20400;-71
2021/08/11 01:12:29;;;;;;;11.57;7.22;;;;;;;13.94;83.98;101889.75;5027000;28;20043;-72
2021/08/11 01:14:54;;;;;;;11.88;7.07;;;;;;;13.96;84.35;101898.53;5045738;28;20093;-72
2021/08/11 01:17:21;;;;;;;10.15;7.13;;;;;;;13.97;84.40;101889.75;5045675;28;20029;-72
2021/08/11 01:19:47;;;;;;;10.60;7.20;;;;;;;13.97;84.44;101895.03;5045507;28;20044;-72
2021/08/11 01:22:22;;;;;;;13.25;7.82;;;;;;;13.98;84.65;101887.97;5045441;28;20037;-72
2021/08/11 01:25:01;;;;;;;13.90;7.82;;;;;;;13.97;84.36;101894.13;5045499;28;20033;-71
2021/08/11 01:27:59;;;;;;;;;;;;;;;13.96;84.58;101887.09;5046126;28;20037;-71
2021/08/11 01:30:43;;;;;;;13.85;7.43;;;;;;;13.96;84.45;101887.09;4984146;28;19933;-72
2021/08/11 01:33:48;;;;;;;14.38;7.90;;;;;;;13.92;84.40;101891.50;4984169;28;20103;-72
2021/08/11 01:36:38;;;;;;;15.88;7.85;;;;;;;13.91;84.63;101889.72;4968023;28;20034;-72
2021/08/11 01:39:07;;;;;;;16.70;7.65;;;;;;;13.91;84.72;101883.56;4982021;28;20098;-71
2021/08/11 01:41:44;;;;;;;12.70;8.20;;;;;;;13.92;84.87;101890.63;4983542;28;20035;-71
2021/08/11 01:44:10;;;;;;;13.25;8.23;;;;;;;13.91;84.77;101897.66;4984147;28;20057;-72
2021/08/11 01:46:41;;;;;;;18.95;8.82;;;;;;;13.92;84.74;101898.56;4983973;28;20101;-72
2021/08/11 01:49:11;;;;;;;14.05;7.78;;;;;;;13.91;84.67;101902.94;4983832;28;20031;-72
2021/08/11 01:51:40;;;;;;;16.38;8.82;;;;;;;13.91;84.75;101902.06;4983965;28;20119;-72
2021/08/11 01:54:08;;;;;;;15.52;8.73;;;;;;;13.89;84.83;101904.69;4983715;28;20034;-72
2021/08/11 01:56:34;;;;;;;14.20;8.55;;;;;;;13.86;84.88;101899.44;4983937;28;20043;-72
2021/08/11 01:59:01;;;;;;;13.82;9.02;;;;;;;13.83;84.66;101900.28;4983643;28;20042;-73
2021/08/11 02:01:27;;;;;;;15.50;8.95;;;;;;;13.82;85.04;101905.59;4967816;28;20098;-72
2021/08/11 02:03:52;;;;;;;19.02;11.07;;;;;;;13.82;86.00;101905.59;4983767;28;20426;-72
2021/08/11 02:06:18;;;;;;;22.27;11.18;;;;;;;13.85;86.23;101902.94;5021803;28;20041;-72
2021/08/11 02:08:44;;;;;;;20.55;10.65;;;;;;;13.87;86.35;101906.44;5044870;28;20086;-71
2021/08/11 02:11:12;;;;;;;16.52;9.88;;;;;;;13.90;85.51;101905.59;5042039;28;20052;-71
2021/08/11 02:13:38;;;;;;;14.15;9.48;;;;;;;13.89;85.40;101899.41;5044799;28;20025;-73
2021/08/11 02:16:03;;;;;;;15.77;9.25;;;;;;;13.89;85.37;101902.06;5026910;28;20037;-72
2021/08/11 02:18:29;;;;;;;18.15;9.63;;;;;;;13.91;85.23;101896.78;5044731;28;20485;-72
2021/08/11 02:20:55;;;;;;;15.20;8.95;;;;;;;13.91;85.10;101897.66;5044606;28;20022;-72
2021/08/11 02:23:20;;;;;;;14.98;8.77;;;;;;;13.91;85.09;101891.50;5044450;28;20041;-70
2021/08/11 02:26:03;;;;;;;14.82;8.73;;;;;;;13.91;85.41;101891.50;5044756;28;20834;-72
2021/08/11 02:28:40;;;;;;;14.20;8.85;;;;;;;13.91;85.40;101888.84;5044396;28;20025;-73
2021/08/11 02:31:18;;;;;;;17.75;9.65;;;;;;;13.93;85.74;101889.72;5044567;28;20049;-73
2021/08/11 02:34:02;;;;;;;14.77;9.60;;;;;;;13.93;85.98;101890.63;5044501;28;20048;-72
2021/08/11 02:36:32;;;;;;;16.77;9.85;;;;;;;13.93;85.71;101888.00;5044577;28;20121;-72
2021/08/11 02:39:11;;;;;;;16.98;9.30;;;;;;;13.94;85.83;101891.50;5043262;28;20044;-72
2021/08/11 02:41:41;;;;;;;16.00;8.73;;;;;;;13.95;85.87;101890.59;5043924;28;20052;-72
2021/08/11 02:44:08;;;;;;;17.83;9.38;;;;;;;13.95;85.29;101886.22;5044575;28;20056;-73
2021/08/11 02:46:41;;;;;;;15.05;9.13;;;;;;;13.95;85.27;101890.59;5044572;28;20059;-72
2021/08/11 02:49:11;;;;;;;13.00;8.68;;;;;;;13.95;85.59;101887.97;5026569;28;20886;-72
2021/08/11 02:51:37;;;;;;;;;;;;;;;13.95;85.78;101887.97;5044819;28;20049;-72
2021/08/11 02:54:11;;;;;;;17.92;8.57;;;;;;;13.97;86.10;101886.19;5044328;28;20475;-73
2021/08/11 02:56:39;;;;;;;20.60;9.23;;;;;;;13.97;86.01;101888.84;5044406;28;20025;-73
2021/08/11 02:59:05;;;;;;;14.63;8.43;;;;;;;13.97;86.18;101881.81;5044343;28;20049;-72
2021/08/11 03:01:30;;;;;;;12.88;8.57;;;;;;;13.96;85.85;101887.97;5044160;28;20101;-73
2021/08/11 03:03:59;;;;;;;11.35;7.65;;;;;;;13.96;85.50;101889.75;5044465;28;20025;-73
2021/08/11 03:06:25;;;;;;;12.82;7.97;;;;;;;13.98;85.90;101886.22;5044320;28;20533;-72
2021/08/11 03:08:51;;;;;;;14.32;7.90;;;;;;;13.98;85.67;101887.97;5041612;28;20041;-72
2021/08/11 03:11:16;;;;;;;16.73;8.38;;;;;;;14.00;85.83;101888.88;5044127;28;20040;-72
2021/08/11 03:13:44;;;;;;;16.35;7.82;;;;;;;13.99;85.52;101892.41;5044094;28;20029;-72
2021/08/11 03:16:10;;;;;;;14.90;8.68;;;;;;;13.99;85.66;101890.63;5044169;28;20101;-73
2021/08/11 03:18:35;;;;;;;19.67;9.32;;;;;;;14.01;85.98;101893.28;5044194;28;20033;-72
2021/08/11 03:21:01;;;;;;;16.98;8.15;;;;;;;13.99;85.82;101890.63;5044160;28;20033;-72
2021/08/11 03:23:26;;;;;;;17.60;8.70;;;;;;;13.97;85.48;101896.78;5053655;28;20521;-72
2021/08/11 03:25:51;;;;;;;14.38;8.65;;;;;;;13.97;85.94;101891.50;5044054;28;20552;-72
2021/08/11 03:28:17;;;;;;;15.60;9.02;;;;;;;13.97;85.62;101896.78;5044472;28;20082;-72
2021/08/11 03:30:42;;;;;;;17.15;8.90;;;;;;;13.96;85.46;101895.03;5043865;28;20378;-72
2021/08/11 03:33:08;;;;;;;21.67;9.90;;;;;;;13.96;85.78;101895.03;5044007;28;20030;-72
2021/08/11 03:35:34;;;;;;;15.73;9.18;;;;;;;13.95;85.71;101902.09;5047405;28;20034;-72
2021/08/11 03:37:59;;;;;;;25.55;11.48;;;;;;;13.95;86.27;101911.75;5047644;28;20022;-73
2021/08/11 03:40:25;;;;;;;18.80;10.50;;;;;;;13.95;86.02;101906.47;5044710;28;20060;-72
2021/08/11 03:42:50;;;;;;;18.98;10.50;;;;;;;13.96;85.93;101916.16;5045278;28;20033;-72
2021/08/11 03:45:15;;;;;;;22.23;12.05;;;;;;;13.98;86.45;101904.72;5047416;28;20038;-73
2021/08/11 03:47:44;;;;;;;22.92;12.43;;;;;;;13.99;86.01;101916.19;5047488;28;20032;-72
2021/08/11 03:50:14;;;;;;;26.67;14.57;;;;;;;14.03;86.67;101908.25;5047553;28;20089;-72
2021/08/11 03:52:40;;;;;;;23.98;14.05;;;;;;;14.06;86.60;101903.84;5047342;28;20040;-72
2021/08/11 03:55:06;;;;;;;25.45;14.23;;;;;;;14.07;86.65;101906.50;5047367;28;20042;-73
2021/08/11 03:57:32;;;;;;;28.33;14.80;;;;;;;14.11;86.96;101899.44;5047519;28;20089;-73
2021/08/11 03:59:57;;;;;;;24.98;13.82;;;;;;;14.13;86.92;101902.97;5047149;28;20075;-72
2021/08/11 04:02:22;;;;;;;28.58;14.52;;;;;;;14.14;86.85;101904.72;5047062;28;20033;-72
2021/08/11 04:04:48;;;;;;;27.48;14.38;;;;;;;14.14;86.94;101908.25;5029559;28;20025;-72
2021/08/11 04:07:13;;;;;;;23.55;13.38;;;;;;;14.16;86.83;101910.91;5044526;28;20041;-71
2021/08/11 04:09:39;;;;;;;27.13;13.48;;;;;;;14.18;86.58;101907.38;5047271;28;20060;-73
2021/08/11 04:12:04;;;;;;;25.65;13.63;;;;;;;14.19;86.78;101906.47;5046950;28;20025;-73
2021/08/11 04:14:29;;;;;;;27.48;14.57;;;;;;;14.23;86.61;101917.94;5046787;28;20033;-73
2021/08/11 04:16:55;;;;;;;25.90;13.40;;;;;;;14.22;86.58;101911.78;5047050;28;20033;-73
2021/08/11 04:19:20;;;;;;;24.98;13.98;;;;;;;14.23;86.44;101916.19;5046895;28;20695;-73
2021/08/11 04:21:46;;;;;;;23.77;13.15;;;;;;;14.22;86.34;101913.56;5046914;28;20041;-71
2021/08/11 04:24:11;;;;;;;25.10;13.52;;;;;;;14.21;86.42;101914.41;5047134;28;20068;-73
2021/08/11 04:26:37;;;;;;;25.55;13.10;;;;;;;14.18;86.34;101915.31;5046838;28;20037;-73
2021/08/11 04:29:02;;;;;;;24.23;13.82;;;;;;;14.17;86.05;101918.81;5046673;28;20026;-73
2021/08/11 04:31:27;;;;;;;24.63;14.18;;;;;;;14.18;86.48;101917.94;5046605;28;20026;-72
2021/08/11 04:33:53;;;;;;;23.27;13.45;;;;;;;14.17;86.07;101915.31;5046596;28;20029;-72
2021/08/11 04:36:18;;;;;;;27.63;14.55;;;;;;;14.16;86.28;101914.44;5043703;28;20030;-72
2021/08/11 04:38:43;;;;;;;26.08;14.35;;;;;;;14.15;86.29;101917.06;5046448;28;20030;-72
2021/08/11 04:41:12;;;;;;;27.27;13.60;;;;;;;14.15;86.24;101904.72;5043158;28;20033;-73
2021/08/11 04:43:37;;;;;;;24.88;14.23;;;;;;;14.16;85.96;101906.50;5046389;28;20029;-72
2021/08/11 04:46:03;;;;;;;24.08;13.57;;;;;;;14.17;86.22;101910.03;5027489;28;20118;-73
2021/08/11 04:48:28;;;;;;;25.92;14.23;;;;;;;14.20;86.30;101910.03;5046475;28;20056;-73
2021/08/11 04:50:53;;;;;;;26.70;13.82;;;;;;;14.21;86.26;101909.13;5046477;28;20029;-73
2021/08/11 04:53:19;;;;;;;25.90;14.07;;;;;;;14.24;86.07;101917.06;5046038;28;20116;-73
2021/08/11 04:55:44;;;;;;;23.00;14.00;;;;;;;14.25;86.09;101913.53;5046063;28;20038;-73
2021/08/11 04:58:09;;;;;;;27.90;13.02;;;;;;;14.29;86.11;101917.06;5044782;28;20030;-73
2021/08/11 05:00:35;;;;;;;25.67;13.82;;;;;;;14.34;86.29;101929.41;5046071;28;20029;-72
2021/08/11 05:03:01;;;;;;;25.52;14.23;;;;;;;14.38;86.39;101928.50;5046287;28;20067;-72
2021/08/11 05:05:26;;;;;;;24.45;14.05;;;;;;;14.47;86.11;101921.47;5043461;28;20075;-72
2021/08/11 05:07:52;;;;;;;25.65;13.45;;;;;;;14.52;85.96;101922.38;5045637;28;20045;-72
2021/08/11 05:10:18;;;;;;;25.33;14.15;;;;;;;14.58;85.78;101927.69;5045826;28;20536;-73
2021/08/11 05:12:44;;;;;;;26.80;13.93;;;;;;;14.64;85.53;101922.38;5045609;28;20044;-73
2021/08/11 05:15:10;;;;;;;26.10;14.60;;;;;;;14.69;85.23;101925.00;5045473;28;20033;-72
2021/08/11 05:17:35;;;;;;;28.48;14.35;;;;;;;14.69;84.93;101923.25;5045901;28;20052;-72
2021/08/11 05:20:01;;;;;;;24.00;14.63;;;;;;;14.72;84.98;101928.53;5045856;28;20029;-73
2021/08/11 05:22:26;;;;;;;23.60;14.20;;;;;;;14.74;84.65;101932.03;5045255;28;20042;-72
2021/08/11 05:24:51;;;;;;;25.63;13.75;;;;;;;14.78;84.38;101932.91;5045532;28;20034;-72
2021/08/11 05:27:17;;;;;;;24.25;14.70;;;;;;;14.81;84.72;101932.94;5045544;28;20037;-73
2021/08/11 05:29:44;;;;;;;26.38;14.45;;;;;;;14.85;84.28;101932.03;5045584;28;20022;-72
2021/08/11 05:32:10;;;;;;;23.90;14.02;;;;;;;14.87;84.43;101937.31;5045238;28;20028;-71
2021/08/11 05:34:36;;;;;;;27.52;15.00;;;;;;;14.90;84.18;101942.63;5045060;28;20025;-72
2021/08/11 05:37:02;;;;;;;28.48;14.43;;;;;;;14.91;84.10;101947.00;5042476;28;20032;-72
2021/08/11 05:39:27;;;;;;;21.75;14.32;;;;;;;14.93;83.98;101959.38;5042938;28;20116;-72
2021/08/11 05:41:53;;;;;;;25.52;14.27;;;;;;;14.94;84.26;101960.25;5044901;28;20029;-72
2021/08/11 05:44:18;;;;;;;28.60;15.75;;;;;;;14.97;84.11;101954.94;5027426;28;20052;-70
2021/08/11 05:46:44;;;;;;;31.23;16.67;;;;;;;15.04;84.45;101954.03;5045218;28;20044;-72
2021/08/11 05:49:10;;;;;;;25.77;14.60;;;;;;;15.16;83.87;101961.97;5045123;28;20489;-72
2021/08/11 05:51:36;;;;;;;29.35;15.73;;;;;;;15.27;82.99;101959.25;5042165;28;20097;-73
2021/08/11 05:54:03;;;;;;;22.67;15.32;;;;;;;15.43;83.46;101970.69;5044715;28;20056;-72
2021/08/11 05:56:29;;;;;;;25.00;15.82;;;;;;;15.57;82.97;101962.69;5044807;28;20029;-72
2021/08/11 05:58:55;;;;;;;29.42;14.93;;;;;;;15.70;82.27;101968.81;5027255;28;20116;-72
2021/08/11 06:01:21;;;;;;;30.58;15.55;;;;;;;15.81;82.28;101969.66;5044975;28;20026;-71
2021/08/11 06:03:46;;;;;;;29.27;15.55;;;;;;;15.88;82.03;101971.41;5044776;28;20046;-72
2021/08/11 06:06:13;;;;;;;30.83;16.35;;;;;;;15.91;81.64;101966.06;5010737;28;20088;-71
2021/08/11 06:08:39;;;;;;;37.35;16.75;;;;;;;15.93;81.25;101968.72;5044823;28;20044;-70
2021/08/11 06:11:04;;;;;;;35.72;17.52;;;;;;;15.95;81.08;101969.56;5042947;28;20034;-71
2021/08/11 06:13:29;;;;;;;27.65;15.50;;;;;;;15.97;81.64;101971.34;5026361;28;20060;-72
2021/08/11 06:15:55;;;;;;;34.92;18.30;;;;;;;16.00;81.02;101973.09;5044464;28;20088;-72
2021/08/11 06:18:20;;;;;;;32.47;17.88;;;;;;;16.03;81.48;101973.09;5044665;28;20037;-72
2021/08/11 06:20:47;;;;;;;31.60;18.88;;;;;;;16.06;81.53;101980.13;5027164;28;20061;-71
2021/08/11 06:23:12;;;;;;;35.03;18.42;;;;;;;16.15;81.55;101985.38;5044633;28;20045;-72
2021/08/11 06:25:38;;;;;;;32.05;16.70;;;;;;;16.28;81.25;101984.41;5044582;28;20044;-72
2021/08/11 06:28:03;;;;;;;37.20;19.55;;;;;;;16.44;80.62;101985.16;5044450;28;20052;-72
2021/08/11 06:30:29;;;;;;;37.45;20.10;;;;;;;16.50;81.04;101979.81;5044546;28;20044;-71
2021/08/11 06:32:54;;;;;;;33.28;18.50;;;;;;;16.65;79.63;101983.22;5044464;28;20608;-71
2021/08/11 06:35:19;;;;;;;36.88;20.05;;;;;;;16.74;80.18;101980.47;5044330;28;20030;-70
2021/08/11 06:37:48;;;;;;;38.50;20.88;;;;;;;16.79;80.12;101978.66;5042044;28;20033;-70
2021/08/11 06:40:15;;;;;;;35.45;20.45;;;;;;;16.92;79.22;101982.13;5042702;28;20033;-71
2021/08/11 06:42:40;;;;;;;40.55;20.33;;;;;;;16.93;79.11;101986.53;5044207;28;20052;-71
2021/08/11 06:45:06;;;;;;;44.15;22.73;;;;;;;16.88;79.22;101986.56;5044336;28;20026;-71
2021/08/11 06:47:32;;;;;;;37.47;22.58;;;;;;;16.90;79.65;101981.22;5026328;28;20037;-71
2021/08/11 06:49:57;;;;;;;41.30;22.35;;;;;;;16.97;79.86;101982.94;5044417;28;20036;-72
2021/08/11 06:52:22;;;;;;;40.47;23.38;;;;;;;17.09;79.17;101984.59;5044308;28;20056;-71
2021/08/11 06:54:48;;;;;;;39.08;22.98;;;;;;;17.25;79.13;101993.28;5044057;28;20030;-71
2021/08/11 06:57:13;;;;;;;34.63;20.02;;;;;;;17.41;78.34;101997.53;5044214;28;20427;-72
2021/08/11 06:59:39;;;;;;;39.78;21.23;;;;;;;17.53;77.21;101996.50;5026465;28;20033;-71
2021/08/11 07:02:04;;;;;;;41.13;21.70;;;;;;;17.57;77.62;101992.03;5044440;28;20485;-70
2021/08/11 07:04:29;;;;;;;38.22;21.20;;;;;;;17.63;77.36;101989.28;5044198;28;20032;-69
2021/08/11 07:06:55;;;;;;;39.85;21.65;;;;;;;17.64;77.63;101981.28;5041472;28;20041;-70
2021/08/11 07:09:23;;;;;;;41.08;22.23;;;;;;;17.64;76.51;101989.25;5028039;28;20497;-70
2021/08/11 07:11:48;;;;;;;35.58;21.05;;;;;;;17.72;76.22;101998.00;5047970;28;20037;-70
2021/08/11 07:14:14;;;;;;;37.72;20.42;;;;;;;17.76;76.46;101997.97;5047528;28;20032;-71
2021/08/11 07:16:39;;;;;;;35.55;20.30;;;;;;;17.79;76.98;101993.50;5047902;28;20043;-71
2021/08/11 07:19:04;;;;;;;35.95;21.75;;;;;;;17.83;76.42;101997.88;5047995;28;20033;-70
2021/08/11 07:21:30;;;;;;;36.53;21.38;;;;;;;17.86;76.00;101996.97;5029873;28;20080;-69
2021/08/11 07:23:55;;;;;;;35.17;20.75;;;;;;;17.92;76.08;101983.63;5047748;28;20026;-71
2021/08/11 07:26:20;;;;;;;36.03;21.13;;;;;;;18.01;76.30;101982.59;5047830;28;20117;-71
2021/08/11 07:28:46;;;;;;;31.75;20.77;;;;;;;18.15;75.16;101985.94;5047627;28;20025;-70
2021/08/11 07:31:11;;;;;;;35.65;20.65;;;;;;;18.29;74.15;101991.03;5047626;28;20033;-70
2021/08/11 07:33:37;;;;;;;31.02;20.60;;;;;;;18.39;74.80;101991.75;5047442;28;20144;-71
2021/08/11 07:36:02;;;;;;;26.20;15.75;;;;;;;18.61;73.61;101981.66;5046220;28;20061;-71
2021/08/11 07:38:28;;;;;;;27.00;18.35;;;;;;;18.76;73.48;101985.84;5046233;28;20048;-71
2021/08/11 07:40:53;;;;;;;25.77;16.77;;;;;;;18.81;73.10;101986.63;5044888;28;20052;-71
2021/08/11 07:43:18;;;;;;;31.50;17.77;;;;;;;18.71;72.08;101985.91;5047237;28;20037;-71
2021/08/11 07:45:44;;;;;;;29.75;16.60;;;;;;;18.66;72.70;101993.09;5047339;28;20040;-70
2021/08/11 07:48:09;;;;;;;30.08;19.15;;;;;;;18.49;73.14;101990.72;5047419;28;20419;-71
2021/08/11 07:50:37;;;;;;;32.53;18.80;;;;;;;18.45;73.14;101999.63;5047298;28;20032;-70
2021/08/11 07:53:03;;;;;;;29.83;18.50;;;;;;;18.54;73.28;101999.50;5047412;28;20129;-71
2021/08/11 07:55:28;;;;;;;30.27;18.23;;;;;;;18.68;74.18;101997.50;5047143;28;20040;-71
2021/08/11 07:57:53;;;;;;;22.02;15.20;;;;;;;18.95;73.13;102000.59;5047460;28;20026;-71
2021/08/11 08:00:22;;;;;;;25.17;16.17;;;;;;;19.00;70.84;101996.06;5047081;28;20543;-72
2021/08/11 08:02:48;;;;;;;25.73;16.83;;;;;;;18.91;71.42;101996.25;5047224;28;20030;-72
2021/08/11 08:05:13;;;;;;;24.60;17.10;;;;;;;18.82;72.10;102005.25;5047071;28;20025;-71
2021/08/11 08:07:38;;;;;;;23.33;16.05;;;;;;;18.77;71.80;101999.13;5045232;28;20065;-70
2021/08/11 08:10:05;;;;;;;31.13;16.58;;;;;;;18.71;71.80;101999.22;5047121;28;20036;-72
2021/08/11 08:12:31;;;;;;;28.95;15.02;;;;;;;18.64;71.60;102000.25;5047024;28;20060;-70
2021/08/11 08:14:56;;;;;;;25.50;14.85;;;;;;;18.49;72.10;102006.69;5046542;28;20033;-70
2021/08/11 08:17:21;;;;;;;26.85;15.00;;;;;;;18.41;72.31;102006.81;5046948;28;20053;-71
2021/08/11 08:19:47;;;;;;;21.17;13.20;;;;;;;18.55;72.21;102006.59;5046750;28;20055;-70
2021/08/11 08:22:16;;;;;;;20.00;14.00;;;;;;;18.70;70.83;102011.66;5046735;28;20126;-71
2021/08/11 08:24:42;;;;;;;22.75;14.20;;;;;;;18.81;71.02;102003.53;5047044;28;20025;-72
2021/08/11 08:27:07;;;;;;;22.85;15.02;;;;;;;18.96;70.78;101998.81;5047014;28;20028;-71
2021/08/11 08:29:32;;;;;;;21.40;14.93;;;;;;;19.17;69.46;102001.09;5046829;28;20037;-71
2021/08/11 08:31:58;;;;;;;21.50;13.48;;;;;;;19.33;67.53;102004.31;5046786;28;20045;-72
2021/08/11 08:34:23;;;;;;;20.08;12.52;;;;;;;19.43;67.44;102002.34;5046524;28;20121;-72
2021/08/11 08:36:48;;;;;;;19.10;13.77;;;;;;;19.54;67.60;102000.34;5044007;28;20041;-72
2021/08/11 08:39:14;;;;;;;21.45;14.82;;;;;;;19.61;67.13;101999.31;5045234;28;20048;-72
2021/08/11 08:41:42;;;;;;;17.42;12.40;;;;;;;19.83;67.57;101999.75;5046017;28;20048;-72
2021/08/11 08:44:08;;;;;;;17.02;12.13;;;;;;;20.10;66.90;101994.72;5028556;28;20636;-72
2021/08/11 08:46:34;;;;;;;15.55;10.70;;;;;;;20.29;65.68;101994.28;5046477;28;20029;-74
2021/08/11 08:49:01;;;;;;;15.68;10.40;;;;;;;20.27;65.23;101999.66;5046421;28;20117;-71
2021/08/11 08:51:30;;;;;;;14.02;9.15;;;;;;;20.32;65.84;101994.19;5046498;28;20125;-71
2021/08/11 08:53:56;;;;;;;12.73;8.50;;;;;;;20.34;62.89;102001.25;5046189;28;20056;-72
2021/08/11 08:56:21;;;;;;;13.68;10.15;;;;;;;20.44;64.07;102005.44;5045841;28;20041;-72
2021/08/11 08:58:47;;;;;;;14.02;8.73;;;;;;;20.60;63.86;101999.75;5046020;28;20026;-73
2021/08/11 09:01:12;;;;;;;11.55;7.85;;;;;;;20.86;63.12;101998.22;5046313;28;20091;-72
2021/08/11 09:03:38;;;;;;;10.00;8.15;;;;;;;21.09;63.33;102013.63;5046184;28;20042;-70
2021/08/11 09:06:03;;;;;;;11.55;9.23;;;;;;;21.22;61.39;102017.72;5046073;28;20533;-72
2021/08/11 09:08:28;;;;;;;12.23;9.00;;;;;;;21.31;62.39;102004.09;5045834;28;20025;-71
2021/08/11 09:10:54;;;;;;;14.82;8.57;;;;;;;21.45;60.79;102002.88;5042918;28;20026;-73
2021/08/11 09:13:23;;;;;;;12.82;8.45;;;;;;;21.41;59.76;102013.59;5045693;28;20473;-72
2021/08/11 09:16:05;;;;;;;13.70;8.73;;;;;;;21.52;60.36;102013.34;5045570;28;20030;-72
2021/08/11 09:18:31;;;;;;;13.43;7.53;;;;;;;21.62;60.41;102016.63;5045895;28;20040;-71
2021/08/11 09:20:59;;;;;;;11.43;8.65;;;;;;;21.65;58.31;102013.00;5045906;28;20025;-72
2021/08/11 09:23:41;;;;;;;11.65;7.00;;;;;;;21.78;58.66;102020.59;5045368;28;20064;-72
2021/08/11 09:26:09;;;;;;;10.23;7.57;;;;;;;21.82;58.52;102020.50;5045412;28;20025;-73
2021/08/11 09:28:46;;;;;;;14.15;7.65;;;;;;;21.60;57.50;102022.00;5045717;28;20028;-73
2021/08/11 09:31:31;;;;;;;11.98;8.00;;;;;;;21.15;59.07;102022.38;5045194;28;20022;-71
2021/08/11 09:33:59;;;;;;;11.95;8.63;;;;;;;21.07;58.85;102015.47;5045424;28;20528;-73
2021/08/11 09:36:25;;;;;;;14.18;7.53;;;;;;;21.17;61.49;102011.63;5045113;28;20102;-71
2021/08/11 09:39:01;;;;;;;14.40;8.85;;;;;;;21.22;60.60;101997.22;5044342;28;20033;-70
2021/08/11 09:41:26;;;;;;;11.68;7.90;;;;;;;21.38;60.14;102003.00;5042199;28;20038;-72
2021/08/11 09:44:10;;;;;;;10.68;7.80;;;;;;;21.36;59.38;102004.84;5045329;28;20026;-70
2021/08/11 09:46:39;;;;;;;8.98;7.05;;;;;;;21.38;59.88;102010.16;5045125;28;20113;-71
2021/08/11 09:49:13;;;;;;;12.23;7.32;;;;;;;21.50;58.49;102009.84;5045237;28;20052;-71
2021/08/11 09:51:58;;;;;;;10.93;7.38;;;;;;;21.60;58.71;102005.97;5045175;28;20080;-71
2021/08/11 09:54:25;;;;;;;10.00;7.35;;;;;;;21.69;58.94;102009.31;5045151;28;20804;-70
2021/08/11 09:56:50;;;;;;;10.25;7.00;;;;;;;21.88;59.26;102015.84;5045163;28;20079;-71
2021/08/11 09:59:15;;;;;;;10.93;6.65;;;;;;;22.05;59.05;102018.00;5045196;28;20026;-71
2021/08/11 10:01:41;;;;;;;10.73;6.50;;;;;;;22.22;58.83;102021.97;5027412;28;20311;-72
2021/08/11 10:04:08;;;;;;;11.75;7.57;;;;;;;22.27;57.79;102020.00;5045271;28;20037;-74
2021/08/11 10:06:39;;;;;;;8.43;5.70;;;;;;;22.24;56.35;102031.69;5044955;28;20163;-72
2021/08/11 10:09:23;;;;;;;11.75;6.10;;;;;;;22.32;57.79;102026.97;5042814;28;21446;-71
2021/08/11 10:11:56;;;;;;;9.90;5.80;;;;;;;22.40;55.47;102029.44;5044863;28;20033;-71
2021/08/11 10:14:29;;;;;;;11.40;6.20;;;;;;;22.53;56.84;102032.56;5044717;28;20030;-71
2021/08/11 10:16:57;;;;;;;10.70;6.25;;;;;;;22.49;55.78;102034.47;5044868;28;20056;-72
2021/08/11 10:19:25;;;;;;;10.48;6.85;;;;;;;22.57;56.86;102028.84;5040806;28;20026;-71
2021/08/11 10:21:59;;;;;;;9.48;6.88;;;;;;;22.55;55.29;102030.72;5044780;28;20050;-73
2021/08/11 10:24:25;;;;;;;10.60;6.07;;;;;;;22.49;54.75;102031.78;5044806;28;20033;-70
2021/08/11 10:26:52;;;;;;;10.98;7.30;;;;;;;22.53;56.16;102027.22;5044804;28;20041;-73
2021/08/11 10:29:21;;;;;;;12.95;8.23;;;;;;;22.56;56.49;102029.78;5044842;28;20499;-72
2021/08/11 10:31:47;;;;;;;12.10;6.75;;;;;;;22.64;56.66;102032.22;5044771;28;20018;-72
2021/08/11 10:34:15;;;;;;;14.70;9.48;;;;;;;22.67;57.22;102029.44;5044469;28;20484;-72
2021/08/11 10:36:45;;;;;;;10.35;8.35;;;;;;;22.77;56.66;102029.06;5044571;28;20056;-73
2021/08/11 10:39:14;;;;;;;12.13;7.30;;;;;;;22.92;56.40;102024.97;5042401;28;20042;-73
2021/08/11 10:41:40;;;;;;;9.13;6.50;;;;;;;23.09;55.88;102029.78;5044119;28;20042;-72
2021/08/11 10:44:14;;;;;;;10.38;6.88;;;;;;;23.20;56.44;102023.19;5045574;28;20087;-72
2021/08/11 10:46:44;;;;;;;13.05;8.63;;;;;;;23.23;55.79;102023.94;5048280;28;20037;-72
2021/08/11 10:49:16;;;;;;;11.00;8.20;;;;;;;23.23;55.41;102031.09;5044345;28;20025;-72
2021/08/11 10:51:44;;;;;;;10.73;7.72;;;;;;;23.16;55.48;102033.13;5048246;28;20481;-71
2021/08/11 10:54:10;;;;;;;10.70;7.47;;;;;;;23.11;55.79;102029.75;5048306;28;20092;-72
2021/08/11 10:56:55;;;;;;;10.93;7.03;;;;;;;23.26;55.22;102033.69;5048255;28;20025;-71
2021/08/11 10:59:33;;;;;;;8.73;6.05;;;;;;;23.39;52.55;102034.97;5048640;28;20052;-73
2021/08/11 11:01:59;;;;;;;7.60;5.75;;;;;;;23.30;52.90;102035.31;5048489;28;20029;-72
2021/08/11 11:04:41;;;;;;;11.48;5.85;;;;;;;23.08;54.39;102041.47;5048307;28;20033;-73
2021/08/11 11:07:09;;;;;;;11.50;7.32;;;;;;;22.97;54.75;102048.97;5048269;28;20025;-72
2021/08/11 11:09:40;;;;;;;13.73;7.75;;;;;;;22.95;55.77;102042.78;5048321;28;20083;-73
2021/08/11 11:12:18;;;;;;;13.27;6.70;;;;;;;23.01;55.94;102041.69;5048253;28;20064;-74
2021/08/11 11:14:45;;;;;;;10.48;7.15;;;;;;;23.13;54.71;102046.63;5048072;28;20029;-72
2021/08/11 11:17:12;;;;;;;10.20;7.35;;;;;;;23.20;53.75;102042.81;5048292;28;20029;-74